Terminal Aerodrome Forecast
Issued by NWS Duluth, MN

Home | Current Version | Previous Version | Text Only | Print | Product List | Glossary On
Versions: 1 2 3 4 5 6 7 8 9 10 11 12 13 14 15 16 17 18 19 20 21 22 23 24
000
FTUS43 KDLH 142047 AAC
TAFDLH
TAF AMD
KDLH 142047Z 1421/1518 17006KT 1SM -SN OVC015
     FM142300 17005KT 2SM -SN OVC020
     FM150200 VRB03KT 2SM -SN BKN025 OVC035
     FM150500 02004KT 4SM -SN SCT025 OVC035
     FM150900 35009KT 6SM -SN BKN025 OVC035
     FM151400 34012G20KT 6SM -SN OVC030=

USA.gov is the U.S. government's official web portal to all federal, state and local government web resources and services.